Time;durP1;ratioP1;P1;durP2;ratioP2;P2;SDS_P1;SDS_P2;PMS_P1;PMS_P2;Temp;Humidity;BMP_temperature;BMP_pressure;BME280_temperature;BME280_humidity;BME280_pressure;Samples;Min_cycle;Max_cycle;Signal;HPM_P1;HPM_P2
2024/04/05 00:00:16;;;;;;;2.85;1.20;;;;;;;11.00;52.38;98965.78;5073503;28;20020;-80
2024/04/05 00:02:43;;;;;;;1.52;0.90;;;;;;;11.55;51.90;99056.06;5071927;28;20032;-80
2024/04/05 00:05:12;;;;;;;6.45;1.20;;;;;;;11.06;51.45;98968.78;5071641;28;20505;-82
2024/04/05 00:07:38;;;;;;;1.88;1.25;;;;;;;11.64;51.33;99047.13;5071837;28;20635;-82
2024/04/05 00:10:08;;;;;;;5.00;1.13;;;;;;;11.72;50.81;99038.22;5071733;28;20021;-80
2024/04/05 00:12:34;;;;;;;2.65;0.90;;;;;;;11.83;51.14;99049.81;5073283;28;20107;-83
2024/04/05 00:15:00;;;;;;;3.53;1.27;;;;;;;11.88;50.32;99056.78;5070924;28;20397;-80
2024/04/05 00:17:26;;;;;;;2.78;1.15;;;;;;;11.65;50.29;99009.94;5071666;28;20504;-80
2024/04/05 00:19:54;;;;;;;5.55;1.30;;;;;;;11.89;50.36;99029.88;5071856;28;20537;-82
2024/04/05 00:22:22;;;;;;;3.58;1.30;;;;;;;11.70;50.12;99001.09;5071476;28;20028;-80
2024/04/05 00:24:48;;;;;;;;;;;;;;;11.87;50.46;99060.78;5073553;28;20472;-83
2024/04/05 00:27:13;;;;;;;4.05;2.03;;;;;;;11.13;51.28;99005.34;5071584;28;19916;-83
2024/04/05 00:29:39;;;;;;;2.38;1.60;;;;;;;10.82;53.23;99024.25;5071874;28;20082;-80
2024/04/05 00:32:04;;;;;;;2.47;1.48;;;;;;;10.33;54.98;99022.56;5071350;28;20036;-80
2024/04/05 00:34:30;;;;;;;1.15;1.00;;;;;;;10.09;56.24;99003.31;5072802;28;20410;-82
2024/04/05 00:36:55;;;;;;;2.53;1.00;;;;;;;9.88;56.54;99014.00;5070965;28;20021;-82
2024/04/05 00:39:21;;;;;;;2.50;1.17;;;;;;;9.43;57.14;99014.44;5071517;28;20027;-78
2024/04/05 00:41:46;;;;;;;3.67;1.10;;;;;;;9.30;58.21;99030.03;5071162;28;20028;-81
2024/04/05 00:44:12;;;;;;;2.38;1.38;;;;;;;9.30;59.67;99050.09;5071493;28;20520;-79
2024/04/05 00:46:37;;;;;;;3.00;1.30;;;;;;;8.75;61.09;99009.25;5072546;28;20033;-81
2024/04/05 00:49:03;;;;;;;2.53;1.30;;;;;;;8.97;62.07;99054.56;5070929;28;20025;-82
2024/04/05 00:51:29;;;;;;;1.90;1.30;;;;;;;8.92;63.01;99052.25;5070085;28;20127;-80
2024/04/05 00:53:55;;;;;;;5.55;1.95;;;;;;;8.76;62.74;99029.31;5058397;28;20024;-81
2024/04/05 00:56:22;;;;;;;6.82;2.83;;;;;;;8.68;63.50;98997.56;5070856;28;20419;-82
2024/04/05 00:58:48;;;;;;;11.13;3.85;;;;;;;8.87;63.13;99016.91;5070991;28;20029;-80
2024/04/05 01:01:15;;;;;;;7.63;2.75;;;;;;;9.10;62.86;99034.69;5072107;28;20056;-81
2024/04/05 01:03:40;;;;;;;3.85;1.83;;;;;;;9.28;63.38;99046.22;5070802;28;20020;-79
2024/04/05 01:06:06;;;;;;;4.03;1.23;;;;;;;9.34;62.75;99030.75;5070421;28;20063;-83
2024/04/05 01:08:31;;;;;;;5.03;1.90;;;;;;;9.07;61.80;98988.66;5071138;28;20028;-81
2024/04/05 01:10:57;;;;;;;4.78;1.52;;;;;;;9.50;61.66;99050.16;5070488;28;20032;-80
2024/04/05 01:13:22;;;;;;;8.77;3.72;;;;;;;9.61;60.22;99034.19;5070722;28;20020;-80
2024/04/05 01:15:48;;;;;;;7.97;3.60;;;;;;;9.59;60.34;99046.84;5070724;28;20024;-81
2024/04/05 01:18:13;;;;;;;11.05;4.50;;;;;;;9.42;59.71;99012.09;5072117;28;20843;-80
2024/04/05 01:20:41;;;;;;;9.88;3.70;;;;;;;9.46;60.40;99034.88;5070179;28;20032;-80
2024/04/05 01:23:10;;;;;;;7.22;3.30;;;;;;;9.45;59.25;99055.38;5070441;28;20055;-80
2024/04/05 01:25:35;;;;;;;1.98;1.33;;;;;;;9.06;60.29;99025.69;5071445;28;20031;-81
2024/04/05 01:28:03;;;;;;;1.83;1.27;;;;;;;9.43;60.52;99049.50;5070154;28;20413;-80
2024/04/05 01:30:29;;;;;;;1.10;0.90;;;;;;;9.40;60.17;99045.63;5069815;28;20035;-80
2024/04/05 01:32:57;;;;;;;6.78;1.40;;;;;;;9.65;60.71;99073.53;5070365;28;20024;-82
2024/04/05 01:35:24;;;;;;;3.42;1.50;;;;;;;9.42;60.78;99057.00;5069901;28;20120;-80
2024/04/05 01:37:49;;;;;;;3.90;1.40;;;;;;;9.24;61.01;99039.97;5070273;28;20031;-83
2024/04/05 01:40:14;;;;;;;49.75;11.23;;;;;;;9.32;61.95;99053.22;5071751;28;20028;-80
2024/04/05 01:42:40;;;;;;;62.50;16.23;;;;;;;9.33;62.31;99054.78;5070291;28;20020;-80
2024/04/05 01:45:06;;;;;;;17.30;6.32;;;;;;;9.41;61.73;99069.22;5069958;28;20024;-80
2024/04/05 01:47:31;;;;;;;5.03;2.00;;;;;;;9.36;61.20;99087.03;5070471;28;20477;-80
2024/04/05 01:49:57;;;;;;;3.92;1.52;;;;;;;8.97;60.73;99021.50;5063309;28;20467;-81
2024/04/05 01:52:22;;;;;;;4.95;1.60;;;;;;;9.24;61.73;99070.28;5069996;28;20574;-80
2024/04/05 01:54:48;;;;;;;2.45;1.17;;;;;;;9.22;61.95;99061.69;5071207;28;20588;-80
2024/04/05 01:57:14;;;;;;;1.98;1.05;;;;;;;9.05;62.82;99035.16;5069667;28;20058;-80
2024/04/05 01:59:45;;;;;;;3.63;1.20;;;;;;;9.13;63.64;99064.94;5069802;28;20115;-79
2024/04/05 02:02:10;;;;;;;4.18;1.30;;;;;;;8.95;64.46;99029.41;5070016;28;20125;-83
2024/04/05 02:04:35;;;;;;;1.85;1.23;;;;;;;9.19;64.06;99055.00;5068939;28;20095;-83
2024/04/05 02:07:01;;;;;;;3.97;1.30;;;;;;;9.06;63.97;99028.44;5070045;28;20455;-80
2024/04/05 02:09:26;;;;;;;3.45;1.35;;;;;;;9.37;64.01;99069.28;5069681;28;20024;-79
2024/04/05 02:11:52;;;;;;;2.80;1.13;;;;;;;9.39;63.83;99082.66;5071259;28;20032;-80
2024/04/05 02:14:17;;;;;;;4.10;1.08;;;;;;;8.80;63.90;99017.03;5069511;28;20467;-80
2024/04/05 02:16:42;;;;;;;3.05;1.17;;;;;;;9.34;64.43;99080.38;5069791;28;20119;-80
2024/04/05 02:19:08;;;;;;;3.90;1.13;;;;;;;9.42;64.41;99083.78;5069866;28;20024;-82
2024/04/05 02:21:34;;;;;;;3.20;0.90;;;;;;;8.97;64.77;99018.75;5071376;28;20135;-82
2024/04/05 02:23:59;;;;;;;2.20;1.13;;;;;;;9.20;65.02;99064.84;5069592;28;20390;-82
2024/04/05 02:26:24;;;;;;;2.58;1.50;;;;;;;9.32;64.75;99069.78;5070944;28;20028;-81
2024/04/05 02:28:50;;;;;;;2.70;1.27;;;;;;;9.24;64.37;99062.03;5070679;28;20028;-83
2024/04/05 02:31:15;;;;;;;1.60;1.00;;;;;;;9.18;63.98;99061.72;5070949;28;20024;-81
2024/04/05 02:33:41;;;;;;;3.67;1.02;;;;;;;9.37;64.31;99083.06;5070595;28;20093;-79
2024/04/05 02:36:07;;;;;;;5.47;2.83;;;;;;;9.38;64.17;99078.34;5071073;28;20541;-79
2024/04/05 02:38:32;;;;;;;2.58;1.40;;;;;;;9.14;63.84;99044.47;5069471;28;20031;-80
2024/04/05 02:40:58;;;;;;;3.42;1.20;;;;;;;9.35;64.12;99096.50;5070952;28;20474;-82
2024/04/05 02:43:23;;;;;;;2.83;1.42;;;;;;;9.20;63.17;99102.66;5069295;28;20532;-81
2024/04/05 02:45:48;;;;;;;1.33;1.10;;;;;;;8.63;65.17;99081.41;5069501;28;20025;-80
2024/04/05 02:48:15;;;;;;;1.60;1.02;;;;;;;8.55;67.40;99055.19;5068990;28;20108;-80
2024/04/05 02:50:40;;;;;;;3.20;1.33;;;;;;;8.81;66.93;99075.66;5070992;28;20098;-81
2024/04/05 02:53:06;;;;;;;4.65;1.50;;;;;;;8.50;66.48;99034.38;5070338;28;20033;-80
2024/04/05 02:55:32;;;;;;;2.30;1.10;;;;;;;8.42;68.25;99040.41;5069508;28;20445;-81
2024/04/05 02:57:57;;;;;;;1.55;1.00;;;;;;;8.80;66.72;99099.69;5055686;28;20057;-80
2024/04/05 03:00:22;;;;;;;3.10;1.48;;;;;;;8.60;67.37;99095.25;5069237;28;20020;-81
2024/04/05 03:02:48;;;;;;;5.57;1.30;;;;;;;8.61;68.88;99116.88;5069077;28;20478;-81
2024/04/05 03:05:14;;;;;;;3.47;1.40;;;;;;;8.52;69.59;99124.84;5069500;28;20059;-80
2024/04/05 03:07:40;;;;;;;5.57;1.45;;;;;;;8.09;70.07;99070.25;5070683;28;20032;-80
2024/04/05 03:10:06;;;;;;;6.95;1.30;;;;;;;8.16;70.22;99072.16;5070532;28;20024;-82
2024/04/05 03:12:32;;;;;;;4.28;1.25;;;;;;;8.43;70.19;99100.59;5069244;28;20391;-79
2024/04/05 03:14:58;;;;;;;10.40;1.67;;;;;;;8.47;70.19;99117.03;5070376;28;20036;-79
2024/04/05 03:17:23;;;;;;;2.78;1.20;;;;;;;8.10;70.21;99060.81;5072841;28;20032;-80
2024/04/05 03:19:51;;;;;;;6.65;1.58;;;;;;;8.29;70.23;99099.94;5072933;28;20041;-79
2024/04/05 03:22:17;;;;;;;4.25;1.88;;;;;;;8.31;71.14;99103.09;5072546;28;20031;-79
2024/04/05 03:24:42;;;;;;;5.35;1.23;;;;;;;8.44;70.88;99117.84;5074173;28;20032;-83
2024/04/05 03:27:07;;;;;;;2.53;1.60;;;;;;;8.51;70.38;99107.53;5074339;28;20041;-80
2024/04/05 03:29:36;;;;;;;4.70;1.13;;;;;;;8.69;70.35;99128.56;5072406;28;20032;-80
2024/04/05 03:32:04;;;;;;;3.78;1.58;;;;;;;8.64;70.34;99118.00;5072562;28;20031;-80
2024/04/05 03:34:29;;;;;;;1.45;1.20;;;;;;;8.65;69.89;99138.84;5059932;28;20029;-80
2024/04/05 03:36:54;;;;;;;2.17;1.50;;;;;;;8.78;69.79;99123.34;5072649;28;20413;-82
2024/04/05 03:39:20;;;;;;;1.75;1.30;;;;;;;8.48;68.92;99088.31;5073878;28;20484;-79
2024/04/05 03:41:45;;;;;;;3.38;1.65;;;;;;;8.43;68.86;99114.34;5072376;28;20538;-80
2024/04/05 03:44:10;;;;;;;3.90;1.42;;;;;;;8.58;69.87;99151.53;5072391;28;20020;-79
2024/04/05 03:46:38;;;;;;;1.73;1.00;;;;;;;8.21;69.31;99107.47;5072158;28;20061;-79
2024/04/05 03:49:06;;;;;;;3.33;1.43;;;;;;;8.18;68.82;99138.59;5072324;28;20029;-79
2024/04/05 03:51:31;;;;;;;;;;;;;;;8.14;69.62;99152.38;5072685;28;20259;-84
2024/04/05 03:53:57;;;;;;;2.35;1.38;;;;;;;7.63;70.32;99125.75;5072298;28;20435;-81
2024/04/05 03:56:23;;;;;;;2.33;1.20;;;;;;;7.52;72.10;99107.78;5073305;28;20119;-81
2024/04/05 03:58:48;;;;;;;1.52;1.13;;;;;;;7.69;72.69;99135.13;5072225;28;20040;-81
2024/04/05 04:01:14;;;;;;;1.92;1.13;;;;;;;7.65;73.15;99137.13;5071979;28;20033;-80
2024/04/05 04:03:41;;;;;;;4.30;1.45;;;;;;;7.24;73.28;99073.06;5072020;28;20025;-79
2024/04/05 04:06:06;;;;;;;1.55;1.27;;;;;;;7.57;73.06;99115.59;5072166;28;20497;-79
2024/04/05 04:08:31;;;;;;;3.60;1.42;;;;;;;7.35;72.90;99115.00;5073243;28;20029;-79
2024/04/05 04:10:57;;;;;;;5.88;2.53;;;;;;;7.43;74.41;99121.19;5072567;28;20501;-80
2024/04/05 04:13:23;;;;;;;3.28;1.40;;;;;;;7.51;73.84;99119.97;5058675;28;20021;-82
2024/04/05 04:15:49;;;;;;;4.93;1.23;;;;;;;7.88;74.99;99155.00;5073297;28;20032;-79
2024/04/05 04:18:15;;;;;;;2.55;1.20;;;;;;;7.92;72.81;99144.75;5072130;28;20097;-80
2024/04/05 04:20:41;;;;;;;3.47;1.52;;;;;;;8.03;72.33;99126.94;5073110;28;20028;-80
2024/04/05 04:23:06;;;;;;;3.03;1.23;;;;;;;7.96;71.41;99113.25;5085173;28;20045;-82
2024/04/05 04:25:33;;;;;;;1.90;1.35;;;;;;;8.18;71.91;99117.34;5065028;28;20107;-80
2024/04/05 04:27:59;;;;;;;4.72;1.33;;;;;;;8.60;70.46;99153.88;5070748;28;20563;-80
2024/04/05 04:30:25;;;;;;;6.22;1.73;;;;;;;8.65;70.66;99147.91;5071702;28;20386;-82
2024/04/05 04:32:50;;;;;;;9.60;2.05;;;;;;;8.84;70.18;99114.19;5059882;28;20478;-81
2024/04/05 04:35:16;;;;;;;3.45;1.90;;;;;;;9.34;69.02;99139.06;5072897;28;20046;-80
2024/04/05 04:37:41;;;;;;;7.38;1.70;;;;;;;9.82;67.71;99164.72;5058381;28;20035;-80
2024/04/05 04:40:11;;;;;;;6.22;1.70;;;;;;;9.65;64.77;99084.56;5071071;28;20024;-82
2024/04/05 04:42:39;;;;;;;6.28;1.83;;;;;;;10.68;61.83;99134.31;5071573;28;20090;-81
2024/04/05 04:45:05;;;;;;;;;;;;;;;11.96;57.22;99163.38;5071556;28;20422;-81
2024/04/05 04:47:31;;;;;;;;;;;;;;;12.84;54.13;99157.41;5071314;28;20405;-80
2024/04/05 04:49:56;;;;;;;;;;;;;;;13.85;50.52;99157.47;5071876;28;20293;-82
2024/04/05 04:52:21;;;;;;;;;;;;;;;14.50;48.53;99162.41;5071653;28;20342;-84
2024/04/05 04:54:46;;;;;;;;;;;;;;;15.10;46.44;99156.59;5071364;28;20094;-82
2024/04/05 04:57:12;;;;;;;;;;;;;;;16.22;44.13;99158.03;5071460;28;19917;-83
2024/04/05 04:59:37;;;;;;;;;;;;;;;17.29;41.85;99168.81;5071200;28;20442;-82
2024/04/05 05:02:03;;;;;;;;;;;;;;;17.62;40.82;99166.06;5066568;28;19912;-80
2024/04/05 05:04:28;;;;;;;;;;;;;;;17.85;40.71;99170.91;5069314;28;19925;-82
2024/04/05 05:06:54;;;;;;;;;;;;;;;18.83;39.04;99179.53;5060701;28;19912;-80
2024/04/05 05:09:19;;;;;;;;;;;;;;;18.85;38.27;99183.41;5057340;28;19912;-82
2024/04/05 05:11:45;;;;;;;;;;;;;;;19.95;36.80;99188.53;5057792;28;19916;-79
2024/04/05 05:14:10;;;;;;;;;;;;;;;19.22;36.82;99186.63;5072077;28;20385;-81
2024/04/05 05:16:38;;;;;;;;;;;;;;;21.19;34.82;99191.56;5071129;28;19958;-82
2024/04/05 05:19:04;;;;;;;;;;;;;;;23.19;31.49;99187.03;5072087;28;19984;-81
2024/04/05 05:21:31;;;;;;;;;;;;;;;24.35;29.61;99199.50;5071043;28;20045;-82
2024/04/05 05:23:57;;;;;;;;;;;;;;;25.17;28.09;99198.84;5070718;28;19919;-81
2024/04/05 05:26:23;;;;;;;;;;;;;;;22.49;31.34;99193.47;5071108;28;19908;-82
2024/04/05 05:28:48;;;;;;;;;;;;;;;24.47;29.93;99209.47;5071766;28;19912;-82
2024/04/05 05:31:13;;;;;;;;;;;;;;;25.50;27.48;99198.56;5063916;28;19908;-83
2024/04/05 05:33:38;;;;;;;;;;;;;;;24.42;28.43;99203.81;5065738;28;19909;-83
2024/04/05 05:36:04;;;;;;;;;;;;;;;24.97;28.57;99214.13;5071820;28;20386;-81
2024/04/05 05:38:29;;;;;;;;;;;;;;;23.71;29.61;99209.09;5070488;28;19919;-81
2024/04/05 05:40:54;;;;;;;;;;;;;;;21.88;31.73;99204.41;5070889;28;19916;-81
2024/04/05 05:43:20;;;;;;;;;;;;;;;21.51;32.55;99210.78;5071575;28;20032;-80
2024/04/05 05:45:45;;;;;;;;;;;;;;;21.06;34.21;99201.13;5057304;28;19908;-80
2024/04/05 05:48:11;;;;;;;;;;;;;;;20.88;34.56;99211.91;5070697;28;20294;-82
2024/04/05 05:50:37;;;;;;;;;;;;;;;20.89;35.40;99200.19;5070336;28;20393;-79
2024/04/05 05:53:02;;;;;;;;;;;;;;;21.66;32.72;99213.44;5071570;28;20373;-80
2024/04/05 05:55:27;;;;;;;;;;;;;;;21.73;32.19;99206.56;5069938;28;20395;-80
2024/04/05 05:57:53;;;;;;;;;;;;;;;21.47;32.42;99207.41;5059655;28;19920;-79
2024/04/05 06:00:18;;;;;;;;;;;;;;;21.06;33.37;99195.50;5071129;28;19986;-81
2024/04/05 06:02:44;;;;;;;;;;;;;;;20.11;35.53;99206.88;5070226;28;20378;-79
2024/04/05 06:05:10;;;;;;;;;;;;;;;20.02;35.37;99216.16;5069650;28;20011;-82
2024/04/05 06:07:35;;;;;;;;;;;;;;;19.69;36.88;99208.03;5068465;28;19999;-81
2024/04/05 06:10:01;;;;;;;;;;;;;;;19.25;37.54;99210.84;5067597;28;20016;-82
2024/04/05 06:12:27;;;;;;;;;;;;;;;19.41;37.47;99213.16;5070152;28;19916;-81
2024/04/05 06:14:56;;;;;;;;;;;;;;;19.19;37.45;99218.38;5070205;28;19948;-79
2024/04/05 06:17:21;;;;;;;;;;;;;;;19.28;38.05;99221.09;5068543;28;20386;-79
2024/04/05 06:19:51;;;;;;;;;;;;;;;19.19;38.29;99214.81;5068930;28;19916;-79
2024/04/05 06:22:17;;;;;;;;;;;;;;;18.77;39.25;99210.22;5069324;28;19916;-79
2024/04/05 06:24:42;;;;;;;;;;;;;;;18.40;40.62;99229.28;5054564;28;19915;-82
2024/04/05 06:27:08;;;;;;;;;;;;;;;18.68;39.79;99221.50;5069344;28;19908;-81
2024/04/05 06:29:33;;;;;;;;;;;;;;;18.79;40.03;99220.94;5069036;28;20015;-79
2024/04/05 06:31:58;;;;;;;;;;;;;;;18.86;39.68;99224.16;5068098;28;19974;-80
2024/04/05 06:34:24;;;;;;;;;;;;;;;19.01;38.84;99226.97;5069606;28;19947;-79
2024/04/05 06:36:49;;;;;;;;;;;;;;;19.24;39.65;99228.91;5070824;28;20275;-80
2024/04/05 06:39:14;;;;;;;;;;;;;;;19.38;38.13;99247.75;5069609;28;19909;-79
2024/04/05 06:41:39;;;;;;;;;;;;;;;19.55;38.49;99238.88;5071018;28;20444;-79
2024/04/05 06:44:05;;;;;;;;;;;;;;;19.63;39.08;99240.03;5070692;28;19912;-79
2024/04/05 06:46:30;;;;;;;;;;;;;;;19.74;38.36;99241.00;5069573;28;19912;-82
2024/04/05 06:48:55;;;;;;;;;;;;;;;19.96;37.97;99254.56;5069207;28;19912;-79
2024/04/05 06:51:21;;;;;;;;;;;;;;;19.90;38.54;99250.91;5073176;28;19912;-79
2024/04/05 06:53:48;;;;;;;;;;;;;;;19.75;38.79;99258.59;5074589;28;19912;-81
2024/04/05 06:56:14;;;;;;;;;;;;;;;19.56;38.90;99260.84;5073179;28;20407;-79
2024/04/05 06:58:40;;;;;;;;;;;;;;;19.56;38.53;99255.22;5074805;28;19916;-79
2024/04/05 07:01:05;;;;;;;;;;;;;;;19.42;38.47;99259.53;5074478;28;20343;-80
2024/04/05 07:03:30;;;;;;;;;;;;;;;19.66;39.35;99251.06;5074505;28;19943;-79
2024/04/05 07:06:00;;;;;;;;;;;;;;;19.91;39.96;99266.50;5074487;28;19915;-81
2024/04/05 07:08:25;;;;;;;;;;;;;;;20.08;39.13;99267.50;5073301;28;20396;-80
2024/04/05 07:10:51;;;;;;;;;;;;;;;20.48;38.30;99271.69;5073040;28;19924;-79
2024/04/05 07:13:16;;;;;;;;;;;;;;;20.96;37.77;99275.59;5074322;28;20016;-79
2024/04/05 07:15:41;;;;;;;;;;;;;;;21.26;36.98;99267.78;5074441;28;20320;-80
2024/04/05 07:18:09;;;;;;;;;;;;;;;21.06;36.65;99274.19;5072809;28;19912;-80
2024/04/05 07:20:36;;;;;;;;;;;;;;;21.06;36.37;99274.19;5060035;28;19908;-80
2024/04/05 07:23:01;;;;;;;;;;;;;;;21.35;35.86;99278.84;5072866;28;19965;-79
2024/04/05 07:25:26;;;;;;;;;;;;;;;20.99;35.31;99285.06;5068988;28;19916;-80
2024/04/05 07:27:54;;;;;;;;;;;;;;;21.01;36.49;99280.50;5066871;28;19962;-80
2024/04/05 07:30:19;;;;;;;;;;;;;;;20.24;37.37;99272.63;5072114;28;19916;-80
2024/04/05 07:32:45;;;;;;;;;;;;;;;21.32;36.74;99285.47;5071560;28;20434;-80
2024/04/05 07:35:10;;;;;;;;;;;;;;;22.00;36.33;99279.19;5074318;28;19914;-79
2024/04/05 07:37:36;;;;;;;;;;;;;;;22.71;34.12;99272.44;5072733;28;19931;-81
2024/04/05 07:40:01;;;;;;;;;;;;;;;21.88;33.89;99281.09;5068614;28;19999;-81
2024/04/05 07:42:27;;;;;;;;;;;;;;;21.67;34.34;99273.25;5067702;28;19920;-82
2024/04/05 07:44:54;;;;;;;;;;;;;;;20.62;35.51;99282.06;5072917;28;20607;-80
2024/04/05 07:47:19;;;;;;;;;;;;;;;21.07;36.39;99286.19;5072620;28;19908;-81
2024/04/05 07:49:44;;;;;;;;;;;;;;;21.12;36.21;99269.38;5071760;28;19986;-81
2024/04/05 07:52:09;;;;;;;;;;;;;;;21.47;34.36;99268.47;5070976;28;19915;-80
2024/04/05 07:54:35;;;;;;;;;;;;;;;21.20;34.47;99269.00;5070347;28;19962;-81
2024/04/05 07:57:00;;;;;;;;;;;;;;;21.40;34.59;99274.53;5072502;28;19916;-81
2024/04/05 07:59:25;;;;;;;;;;;;;;;21.77;35.18;99274.63;5072942;28;20025;-80
2024/04/05 08:01:51;;;;;;;;;;;;;;;21.69;34.66;99268.69;5070614;28;19919;-80
2024/04/05 08:04:16;;;;;;;;;;;;;;;21.94;34.32;99267.09;5072956;28;19912;-81
2024/04/05 08:06:41;;;;;;;;;;;;;;;22.03;35.41;99260.53;5072259;28;20351;-81
2024/04/05 08:09:11;;;;;;;;;;;;;;;21.69;33.82;99262.28;5073660;28;19912;-81
2024/04/05 08:11:36;;;;;;;;;;;;;;;21.07;35.23;99263.72;5072198;28;19916;-80
2024/04/05 08:14:02;;;;;;;;;;;;;;;21.29;34.68;99260.38;5073302;28;19912;-80
2024/04/05 08:16:27;;;;;;;;;;;;;;;20.74;35.36;99272.50;5071811;28;19920;-80
2024/04/05 08:18:54;;;;;;;;;;;;;;;20.36;36.12;99265.16;5072154;28;19943;-80
2024/04/05 08:21:20;;;;;;;;;;;;;;;20.17;38.10;99261.78;5072945;28;19908;-80
2024/04/05 08:23:49;;;;;;;;;;;;;;;20.15;38.95;99275.53;5071990;28;19912;-82
2024/04/05 08:26:14;;;;;;;;;;;;;;;20.31;37.16;99260.22;5071705;28;19995;-80
2024/04/05 08:28:39;;;;;;;;;;;;;;;20.23;37.22;99259.06;5071791;28;20394;-80
2024/04/05 08:31:05;;;;;;;;;;;;;;;20.46;36.64;99263.75;5072535;28;19912;-80
2024/04/05 08:33:30;;;;;;;;;;;;;;;20.52;35.63;99261.00;5073055;28;20019;-80
2024/04/05 08:35:56;;;;;;;;;;;;;;;20.70;36.98;99255.88;5072739;28;19916;-80
2024/04/05 08:38:21;;;;;;;;;;;;;;;20.99;36.25;99256.97;5072845;28;19978;-81
2024/04/05 08:40:49;;;;;;;;;;;;;;;21.34;35.12;99248.44;5072609;28;20267;-80
2024/04/05 08:43:16;;;;;;;;;;;;;;;21.41;35.86;99240.31;5071741;28;19919;-80
2024/04/05 08:45:41;;;;;;;;;;;;;;;21.54;33.04;99245.53;5071516;28;19947;-80
2024/04/05 08:48:08;;;;;;;;;;;;;;;21.82;32.85;99240.91;5071197;28;19944;-81
2024/04/05 08:50:34;;;;;;;;;;;;;;;22.03;33.17;99244.41;5058273;28;19916;-82
2024/04/05 08:52:59;;;;;;;;;;;;;;;21.91;31.90;99237.91;5071137;28;19908;-81
2024/04/05 08:55:25;;;;;;;;;;;;;;;21.70;31.86;99239.28;5071151;28;19951;-79
2024/04/05 08:57:51;;;;;;;;;;;;;;;21.86;30.98;99237.88;5071112;28;19925;-82
2024/04/05 09:00:22;;;;;;;;;;;;;;;22.15;32.16;99237.59;5071321;28;20350;-79
2024/04/05 09:02:49;;;;;;;;;;;;;;;22.66;32.56;99230.16;5072216;28;19912;-82
2024/04/05 09:05:17;;;;;;;;;;;;;;;22.84;31.59;99226.16;5071124;28;20439;-82
2024/04/05 09:07:42;;;;;;;;;;;;;;;23.08;31.67;99230.06;5071311;28;19908;-80
2024/04/05 09:10:14;;;;;;;;;;;;;;;23.01;29.62;99226.97;5070690;28;19923;-80
2024/04/05 09:12:49;;;;;;;;;;;;;;;23.26;28.86;99244.97;5062121;28;19912;-80
2024/04/05 09:15:18;;;;;;;;;;;;;;;23.38;31.10;99227.53;5061142;28;20477;-81
2024/04/05 09:17:50;;;;;;;;;;;;;;;23.49;27.47;99224.75;5067105;28;20294;-82
2024/04/05 09:20:24;;;;;;;;;;;;;;;23.62;27.86;99203.72;5063840;28;19913;-83
2024/04/05 09:22:57;;;;;;;;;;;;;;;23.76;26.62;99219.59;5068694;28;19915;-81
2024/04/05 09:25:22;;;;;;;;;;;;;;;24.10;27.48;99209.81;5070785;28;19914;-82
2024/04/05 09:27:48;;;;;;;;;;;;;;;24.21;27.85;99211.88;5070709;28;19916;-81
2024/04/05 09:30:14;;;;;;;;;;;;;;;24.35;27.10;99193.84;5070635;28;19999;-79
2024/04/05 09:32:40;;;;;;;;;;;;;;;23.81;26.30;99213.94;5070594;28;19908;-85
2024/04/05 09:35:08;;;;;;;;;;;;;;;23.61;26.82;99213.47;5072008;28;19969;-86
2024/04/05 09:37:34;;;;;;;;;;;;;;;23.33;26.26;99213.44;5071691;28;19912;-84
2024/04/05 09:40:00;;;;;;;;;;;;;;;23.13;26.69;99220.84;5071711;28;19915;-85
2024/04/05 09:42:27;;;;;;;;;;;;;;;23.10;29.10;99219.03;5070703;28;19943;-84
2024/04/05 09:44:58;;;;;;;;;;;;;;;23.21;28.26;99215.44;5069117;28;19931;-84
2024/04/05 09:47:25;;;;;;;;;;;;;;;23.47;27.47;99193.47;5068966;28;20183;-85
2024/04/05 09:49:51;;;;;;;;;;;;;;;23.70;28.39;99207.56;5071852;28;19958;-84
2024/04/05 09:52:20;;;;;;;;;;;;;;;23.20;26.15;99205.47;5064936;28;19951;-87
2024/04/05 09:54:46;;;;;;;;;;;;;;;23.36;27.74;99201.13;5063839;28;19935;-83
2024/04/05 09:57:13;;;;;;;;;;;;;;;23.39;26.42;99195.22;5071341;28;19917;-84
2024/04/05 09:59:40;;;;;;;;;;;;;;;23.51;28.05;99207.28;5070500;28;20010;-84
2024/04/05 10:02:08;;;;;;;;;;;;;;;23.74;26.70;99202.44;5070702;28;20274;-83
2024/04/05 10:04:37;;;;;;;;;;;;;;;23.81;29.39;99197.00;5070340;28;19913;-83
2024/04/05 10:07:06;;;;;;;;;;;;;;;24.05;28.82;99198.53;5070534;28;19913;-86
2024/04/05 10:09:34;;;;;;;;;;;;;;;24.20;26.16;99205.44;5070078;28;19916;-86
2024/04/05 10:12:10;;;;;;;;;;;;;;;24.43;28.04;99208.19;5063014;28;19916;-84
2024/04/05 10:14:36;;;;;;;;;;;;;;;24.54;24.84;99208.91;5068208;28;19913;-84
2024/04/05 10:17:06;;;;;;;;;;;;;;;24.53;24.50;99198.16;5071544;28;19913;-84
2024/04/05 10:19:31;;;;;;;;;;;;;;;25.19;25.08;99199.88;5070266;28;19912;-84
2024/04/05 10:22:08;;;;;;;;;;;;;;;25.46;26.23;99181.13;5070490;28;19962;-83
2024/04/05 10:24:33;;;;;;;;;;;;;;;25.64;24.93;99186.13;5069313;28;20324;-83
2024/04/05 10:26:59;;;;;;;;;;;;;;;25.65;24.76;99187.69;5070476;28;19995;-83
2024/04/05 10:29:28;;;;;;;;;;;;;;;25.53;24.48;99175.66;5071601;28;20309;-84
2024/04/05 10:32:00;;;;;;;;;;;;;;;25.79;23.70;99185.75;5070037;28;19942;-84
2024/04/05 10:34:26;;;;;;;;;;;;;;;25.93;22.74;99185.34;5058272;28;19968;-84
2024/04/05 10:36:51;;;;;;;;;;;;;;;26.07;23.67;99182.63;5069886;28;20302;-83
2024/04/05 10:39:19;;;;;;;;;;;;;;;25.80;24.63;99173.13;5071209;28;19973;-83
2024/04/05 10:41:46;;;;;;;;;;;;;;;25.43;24.87;99168.03;5070046;28;20355;-86
2024/04/05 10:44:11;;;;;;;;;;;;;;;24.42;25.36;99182.00;5070037;28;19912;-83
2024/04/05 10:46:37;;;;;;;;;;;;;;;24.06;27.13;99175.41;5070058;28;20019;-82
2024/04/05 10:49:02;;;;;;;;;;;;;;;23.51;26.92;99177.03;5069804;28;19917;-83
2024/04/05 10:51:28;;;;;;;;;;;;;;;23.63;27.69;99171.41;5057640;28;19921;-83
2024/04/05 10:53:54;;;;;;;;;;;;;;;24.10;29.79;99170.28;5069899;28;19919;-84
2024/04/05 10:56:19;;;;;;;;;;;;;;;24.22;27.66;99169.00;5069687;28;20405;-88
2024/04/05 10:58:46;;;;;;;;;;;;;;;24.26;25.31;99163.06;5070016;28;19925;-84
2024/04/05 11:01:12;;;;;;;;;;;;;;;24.52;25.88;99154.22;5071068;28;19948;-86
2024/04/05 11:03:37;;;;;;;;;;;;;;;24.30;25.68;99167.16;5062480;28;19916;-84
2024/04/05 11:06:03;;;;;;;;;;;;;;;23.77;26.36;99162.66;5061796;28;19967;-83
2024/04/05 11:08:28;;;;;;;;;;;;;;;23.72;27.29;99166.25;5063824;28;19925;-85
2024/04/05 11:10:55;;;;;;;;;;;;;;;23.56;26.81;99161.41;5064377;28;19982;-85
2024/04/05 11:13:20;;;;;;;;;;;;;;;23.51;27.12;99160.13;5071961;28;19924;-84
2024/04/05 11:15:46;;;;;;;;;;;;;;;23.58;29.06;99163.69;5070987;28;20015;-84
2024/04/05 11:18:12;;;;;;;;;;;;;;;23.64;26.74;99164.47;5071001;28;19917;-84
2024/04/05 11:20:39;;;;;;;;;;;;;;;23.61;27.10;99160.63;5072353;28;19913;-86
2024/04/05 11:23:20;;;;;;;;;;;;;;;23.69;25.50;99169.34;5070380;28;19920;-86
2024/04/05 11:25:52;;;;;;;;;;;;;;;23.95;27.95;99152.88;5071185;28;19913;-84
2024/04/05 11:28:22;;;;;;;;;;;;;;;24.02;26.40;99172.09;5069934;28;19919;-86
2024/04/05 11:30:48;;;;;;;;;;;;;;;24.15;27.81;99163.84;5070699;28;19913;-84
2024/04/05 11:33:13;;;;;;;;;;;;;;;24.42;28.91;99153.75;5069091;28;19924;-85
2024/04/05 11:35:39;;;;;;;;;;;;;;;24.53;27.24;99161.41;5069807;28;19913;-86
2024/04/05 11:38:04;;;;;;;;;;;;;;;23.99;25.72;99152.63;5073120;28;20026;-86
2024/04/05 11:40:30;;;;;;;;;;;;;;;24.00;26.91;99151.31;5073385;28;19920;-84
2024/04/05 11:42:55;;;;;;;;;;;;;;;24.12;27.87;99156.41;5073161;28;20061;-85
2024/04/05 11:45:21;;;;;;;;;;;;;;;23.78;27.54;99152.13;5073144;28;20378;-84
2024/04/05 11:47:49;;;;;;;;;;;;;;;23.97;28.75;99149.53;5073001;28;19916;-85
2024/04/05 11:50:14;;;;;;;;;;;;;;;24.09;27.61;99148.22;5059898;28;19966;-84
2024/04/05 11:52:40;;;;;;;;;;;;;;;24.26;26.65;99141.25;5072802;28;19916;-84
2024/04/05 11:55:06;;;;;;;;;;;;;;;24.40;27.51;99149.91;5074307;28;20372;-84
2024/04/05 11:57:32;;;;;;;;;;;;;;;24.29;28.22;99140.19;5072869;28;19927;-84
2024/04/05 11:59:57;;;;;;;;;;;;;;;24.27;27.17;99145.59;5072935;28;20018;-84
2024/04/05 12:02:23;;;;;;;;;;;;;;;24.48;27.12;99140.38;5072574;28;19917;-86
2024/04/05 12:04:49;;;;;;;;;;;;;;;24.47;27.16;99140.91;5059785;28;19913;-87
2024/04/05 12:07:14;;;;;;;;;;;;;;;24.60;27.16;99138.25;5072720;28;19916;-84
2024/04/05 12:09:39;;;;;;;;;;;;;;;24.84;27.25;99143.25;5068353;28;20301;-86
2024/04/05 12:12:05;;;;;;;;;;;;;;;24.90;26.16;99127.03;5072477;28;20294;-86
2024/04/05 12:14:33;;;;;;;;;;;;;;;24.64;26.40;99128.22;5073323;28;19956;-86